Time;durP1;ratioP1;P1;durP2;ratioP2;P2;SDS_P1;SDS_P2;PMS_P1;PMS_P2;Temp;Humidity;BMP_temperature;BMP_pressure;BME280_temperature;BME280_humidity;BME280_pressure;Samples;Min_cycle;Max_cycle;Signal;HPM_P1;HPM_P2
2024/03/17 00:01:52;;;;;;;4.93;1.77;;;20.20;76.30;;;;;;5028531;28;20038;-67
2024/03/17 00:04:18;;;;;;;4.88;1.95;;;20.20;76.30;;;;;;5030264;28;20649;-67
2024/03/17 00:06:45;;;;;;;7.40;1.98;;;20.20;76.30;;;;;;5030433;28;20071;-69
2024/03/17 00:09:11;;;;;;;4.38;1.90;;;20.20;76.40;;;;;;5030481;28;20345;-64
2024/03/17 00:11:36;;;;;;;10.68;2.42;;;20.20;76.70;;;;;;5029464;28;20022;-65
2024/03/17 00:14:02;;;;;;;3.45;2.17;;;20.20;76.80;;;;;;5031164;28;20025;-65
2024/03/17 00:16:28;;;;;;;3.17;1.58;;;20.20;76.60;;;;;;5030560;28;20392;-64
2024/03/17 00:18:55;;;;;;;4.18;1.90;;;20.20;76.60;;;;;;5030472;28;20028;-66
2024/03/17 00:21:21;;;;;;;7.40;2.08;;;20.20;76.70;;;;;;5029618;28;20022;-66
2024/03/17 00:23:49;;;;;;;9.75;2.08;;;20.20;77.00;;;;;;5030433;28;20029;-65
2024/03/17 00:26:16;;;;;;;7.85;2.05;;;20.20;77.00;;;;;;5030410;28;20022;-66
2024/03/17 00:28:41;;;;;;;3.33;1.52;;;20.20;77.20;;;;;;5030245;28;20028;-65
2024/03/17 00:31:09;;;;;;;3.80;1.67;;;20.20;77.20;;;;;;5029573;28;20100;-66
2024/03/17 00:33:35;;;;;;;7.43;2.10;;;20.20;77.40;;;;;;5030299;28;20053;-66
2024/03/17 00:36:01;;;;;;;6.65;1.85;;;20.20;77.40;;;;;;5031191;28;20033;-65
2024/03/17 00:38:27;;;;;;;6.82;1.70;;;20.20;77.40;;;;;;5029606;28;20030;-67
2024/03/17 00:40:53;;;;;;;2.38;1.48;;;20.20;77.50;;;;;;5030722;28;20071;-67
2024/03/17 00:43:18;;;;;;;4.03;2.05;;;20.20;77.50;;;;;;5031255;28;20025;-67
2024/03/17 00:45:50;;;;;;;4.60;1.75;;;20.20;77.60;;;;;;5033721;28;20041;-66
2024/03/17 00:48:16;;;;;;;4.07;1.75;;;20.20;77.70;;;;;;5035328;28;20033;-65
2024/03/17 00:50:43;;;;;;;4.60;1.70;;;20.20;77.80;;;;;;5035227;28;20026;-66
2024/03/17 00:53:09;;;;;;;3.17;1.33;;;20.20;77.70;;;;;;5034604;28;20100;-65
2024/03/17 00:55:35;;;;;;;7.18;1.80;;;20.20;77.80;;;;;;5035140;28;20523;-65
2024/03/17 00:58:01;;;;;;;5.47;1.85;;;20.20;77.80;;;;;;5035121;28;20030;-66
2024/03/17 01:00:26;;;;;;;7.53;1.70;;;20.20;78.00;;;;;;5035105;28;20025;-66
2024/03/17 01:02:52;;;;;;;6.30;2.13;;;20.20;78.00;;;;;;5034550;28;20065;-66
2024/03/17 01:05:18;;;;;;;3.10;2.00;;;20.20;78.00;;;;;;5036935;28;20082;-66
2024/03/17 01:07:43;;;;;;;3.75;1.42;;;20.20;77.90;;;;;;5036439;28;20030;-66
2024/03/17 01:10:09;;;;;;;3.03;1.42;;;20.20;77.90;;;;;;5037783;28;20104;-66
2024/03/17 01:12:35;;;;;;;2.47;1.73;;;20.20;77.90;;;;;;5036614;28;20025;-66
2024/03/17 01:15:04;;;;;;;3.10;1.70;;;20.20;77.90;;;;;;5034813;28;20400;-66
2024/03/17 01:17:30;;;;;;;2.30;1.52;;;20.30;77.90;;;;;;5035038;28;20033;-66
2024/03/17 01:19:55;;;;;;;3.10;1.42;;;20.20;77.80;;;;;;5034608;28;20037;-66
2024/03/17 01:22:22;;;;;;;2.20;1.48;;;20.20;77.90;;;;;;5033801;28;20064;-66
2024/03/17 01:24:47;;;;;;;3.53;1.95;;;20.20;77.80;;;;;;5034636;28;20143;-66
2024/03/17 01:27:15;;;;;;;2.85;1.50;;;20.20;77.90;;;;;;5034360;28;20135;-65
2024/03/17 01:29:42;;;;;;;4.07;1.55;;;20.20;77.90;;;;;;5034247;28;20026;-65
2024/03/17 01:32:08;;;;;;;6.00;1.35;;;20.20;78.00;;;;;;5033621;28;20113;-65
2024/03/17 01:34:34;;;;;;;3.45;1.27;;;20.20;77.90;;;;;;5034397;28;20037;-66
2024/03/17 01:37:00;;;;;;;2.72;1.50;;;20.30;77.90;;;;;;5034145;28;20038;-65
2024/03/17 01:39:25;;;;;;;2.60;1.30;;;20.20;78.00;;;;;;5034073;28;20025;-65
2024/03/17 01:41:52;;;;;;;1.70;1.27;;;20.20;78.00;;;;;;5033519;28;20072;-65
2024/03/17 01:44:26;;;;;;;1.75;1.15;;;20.30;78.00;;;;;;5034126;28;20033;-65
2024/03/17 01:46:53;;;;;;;2.33;1.30;;;20.30;78.10;;;;;;5034103;28;20079;-65
2024/03/17 01:49:22;;;;;;;3.95;1.40;;;20.20;78.10;;;;;;5033990;28;20550;-65
2024/03/17 01:51:48;;;;;;;1.73;1.40;;;20.30;78.10;;;;;;5033704;28;20030;-65
2024/03/17 01:54:15;;;;;;;3.88;1.33;;;20.20;78.30;;;;;;5033922;28;20022;-65
2024/03/17 01:56:42;;;;;;;5.47;1.88;;;20.20;78.30;;;;;;5032857;28;20062;-65
2024/03/17 01:59:09;;;;;;;2.45;1.75;;;20.20;78.20;;;;;;5034058;28;20577;-65
2024/03/17 02:01:35;;;;;;;3.65;1.80;;;20.20;78.30;;;;;;5033005;28;20102;-65
2024/03/17 02:04:01;;;;;;;1.83;1.15;;;20.20;78.30;;;;;;5031026;28;20032;-65
2024/03/17 02:06:27;;;;;;;4.15;1.70;;;20.20;78.30;;;;;;5033671;28;20022;-64
2024/03/17 02:08:54;;;;;;;2.58;1.20;;;20.20;78.40;;;;;;5033665;28;20024;-66
2024/03/17 02:11:38;;;;;;;5.53;1.50;;;20.20;78.30;;;;;;5030417;28;20087;-64
2024/03/17 02:14:06;;;;;;;3.38;1.55;;;20.20;78.30;;;;;;5021967;28;20072;-65
2024/03/17 02:16:31;;;;;;;1.23;1.05;;;20.20;78.40;;;;;;5033406;28;20072;-65
2024/03/17 02:18:58;;;;;;;3.88;1.40;;;20.20;78.50;;;;;;5033834;28;20488;-65
2024/03/17 02:21:24;;;;;;;2.17;1.55;;;20.20;78.50;;;;;;5032612;28;20103;-65
2024/03/17 02:23:51;;;;;;;2.78;1.80;;;20.20;78.50;;;;;;5032470;28;20151;-66
2024/03/17 02:26:17;;;;;;;1.83;1.25;;;20.20;78.40;;;;;;5033261;28;20496;-65
2024/03/17 02:28:44;;;;;;;2.65;1.15;;;20.20;78.40;;;;;;5033394;28;20103;-65
2024/03/17 02:31:13;;;;;;;3.85;1.92;;;20.20;78.40;;;;;;5032446;28;20523;-65
2024/03/17 02:33:39;;;;;;;2.78;1.13;;;20.20;78.40;;;;;;5032429;28;20501;-64
2024/03/17 02:36:09;;;;;;;1.52;1.23;;;20.20;78.40;;;;;;5033618;28;20029;-64
2024/03/17 02:41:19;;;;;;;2.45;1.48;;;20.20;78.40;;;;;;5032727;28;20040;-64
2024/03/17 02:43:45;;;;;;;1.67;0.98;;;20.20;78.40;;;;;;5033148;28;20025;-66
2024/03/17 02:46:16;;;;;;;2.00;1.30;;;20.20;78.40;;;;;;5032882;28;20407;-66
2024/03/17 02:48:46;;;;;;;5.53;1.45;;;20.20;78.40;;;;;;5033077;28;20028;-66
2024/03/17 02:51:16;;;;;;;2.97;1.30;;;20.20;78.40;;;;;;5032288;28;20021;-66
2024/03/17 02:53:46;;;;;;;2.22;1.40;;;20.20;78.30;;;;;;5032790;28;20092;-66
2024/03/17 02:56:12;;;;;;;1.77;1.38;;;20.30;78.30;;;;;;5032845;28;20032;-66
2024/03/17 02:58:39;;;;;;;3.28;1.55;;;20.20;78.30;;;;;;5032809;28;20029;-65
2024/03/17 03:01:06;;;;;;;1.45;0.93;;;20.20;78.30;;;;;;5032251;28;20029;-65
2024/03/17 03:03:32;;;;;;;1.88;1.10;;;20.20;78.20;;;;;;5032891;28;20026;-66
2024/03/17 03:05:58;;;;;;;1.58;1.35;;;20.20;78.20;;;;;;5032626;28;20022;-65
2024/03/17 03:08:24;;;;;;;1.15;0.95;;;20.20;78.20;;;;;;5031343;28;20506;-64
2024/03/17 03:10:50;;;;;;;2.03;1.35;;;20.20;78.10;;;;;;5032289;28;20104;-64
2024/03/17 03:13:16;;;;;;;3.38;1.35;;;20.20;78.20;;;;;;5032560;28;20032;-64
2024/03/17 03:15:42;;;;;;;1.67;1.40;;;20.20;78.10;;;;;;5032624;28;20399;-64
2024/03/17 03:18:08;;;;;;;2.28;1.23;;;20.20;78.10;;;;;;5032695;28;20034;-64
2024/03/17 03:20:33;;;;;;;2.22;1.45;;;20.20;78.10;;;;;;5032120;28;20036;-64
2024/03/17 03:23:00;;;;;;;2.08;0.93;;;20.20;78.10;;;;;;5030881;28;20108;-64
2024/03/17 03:25:26;;;;;;;1.88;1.25;;;20.20;78.00;;;;;;5032231;28;20025;-65
2024/03/17 03:27:53;;;;;;;1.83;1.10;;;20.20;78.00;;;;;;5032249;28;20072;-64
2024/03/17 03:30:21;;;;;;;4.60;1.75;;;20.20;78.10;;;;;;5031998;28;20400;-64
2024/03/17 03:32:47;;;;;;;1.85;1.02;;;20.20;78.00;;;;;;5031327;28;20472;-64
2024/03/17 03:35:14;;;;;;;2.25;1.10;;;20.20;78.00;;;;;;5030505;28;20029;-64
2024/03/17 03:37:41;;;;;;;1.95;0.90;;;20.20;78.00;;;;;;5032206;28;20037;-64
2024/03/17 03:40:16;;;;;;;1.92;1.08;;;20.20;78.20;;;;;;5030262;28;20405;-64
2024/03/17 03:42:42;;;;;;;1.42;1.05;;;20.20;78.10;;;;;;5031400;28;20036;-64
2024/03/17 03:45:09;;;;;;;1.38;1.13;;;20.20;78.20;;;;;;5031716;28;20022;-64
2024/03/17 03:47:35;;;;;;;2.65;1.35;;;20.10;78.20;;;;;;5031988;28;20029;-65
2024/03/17 03:50:00;;;;;;;2.03;1.25;;;20.20;78.30;;;;;;5031632;28;20021;-65
2024/03/17 03:52:26;;;;;;;1.52;1.05;;;20.20;78.30;;;;;;5031101;28;20149;-64
2024/03/17 03:54:52;;;;;;;1.67;1.10;;;20.20;78.40;;;;;;5031655;28;20029;-65
2024/03/17 03:57:17;;;;;;;0.90;0.77;;;20.20;78.40;;;;;;5031700;28;20032;-64
2024/03/17 03:59:44;;;;;;;2.45;1.40;;;20.20;78.30;;;;;;5031393;28;20034;-65
2024/03/17 04:02:09;;;;;;;1.98;1.23;;;20.20;78.30;;;;;;5031028;28;20034;-65
2024/03/17 04:04:35;;;;;;;4.05;1.50;;;20.20;78.40;;;;;;5031563;28;20062;-65
2024/03/17 04:07:01;;;;;;;2.03;1.25;;;20.10;78.40;;;;;;5031760;28;20543;-65
2024/03/17 04:09:26;;;;;;;2.95;1.08;;;20.20;78.40;;;;;;5031650;28;20025;-66
2024/03/17 04:11:52;;;;;;;8.10;1.02;;;20.20;78.30;;;;;;5030732;28;20026;-66
2024/03/17 04:14:18;;;;;;;0.80;0.80;;;20.20;78.30;;;;;;5031366;28;20525;-66
2024/03/17 04:16:44;;;;;;;2.95;1.25;;;20.20;78.30;;;;;;5031437;28;20405;-65
2024/03/17 04:19:09;;;;;;;4.55;1.52;;;20.20;78.30;;;;;;5030997;28;20034;-65
2024/03/17 04:21:35;;;;;;;4.50;1.08;;;20.20;78.30;;;;;;5030690;28;20052;-65
2024/03/17 04:24:00;;;;;;;3.03;1.00;;;20.20;78.30;;;;;;5031319;28;20076;-65
2024/03/17 04:26:26;;;;;;;2.67;1.52;;;20.10;78.20;;;;;;5031320;28;20075;-65
2024/03/17 04:28:52;;;;;;;2.70;1.30;;;20.20;78.20;;;;;;5031181;28;20021;-65
2024/03/17 04:31:18;;;;;;;3.55;1.13;;;20.20;78.30;;;;;;5030639;28;20507;-66
2024/03/17 04:33:43;;;;;;;2.22;1.50;;;20.20;78.20;;;;;;5031332;28;20025;-65
2024/03/17 04:36:09;;;;;;;1.98;1.30;;;20.20;78.20;;;;;;5031246;28;20490;-65
2024/03/17 04:38:34;;;;;;;3.22;1.00;;;20.20;78.20;;;;;;5031179;28;20036;-65
2024/03/17 04:41:08;;;;;;;3.28;1.15;;;20.20;78.10;;;;;;5030616;28;20034;-65
2024/03/17 04:43:34;;;;;;;1.33;0.85;;;20.20;78.10;;;;;;5030901;28;20804;-65
2024/03/17 04:46:03;;;;;;;8.98;1.55;;;20.20;78.20;;;;;;5031036;28;20046;-66
2024/03/17 04:48:28;;;;;;;6.47;1.63;;;20.20;78.20;;;;;;5031267;28;20144;-66
2024/03/17 04:50:54;;;;;;;2.50;1.40;;;20.20;78.20;;;;;;5030616;28;20033;-67
2024/03/17 04:53:20;;;;;;;4.10;1.55;;;20.20;78.20;;;;;;5030482;28;20038;-66
2024/03/17 04:55:46;;;;;;;3.47;1.25;;;20.20;78.20;;;;;;5013657;28;20041;-66
2024/03/17 04:58:11;;;;;;;2.05;1.08;;;20.20;78.20;;;;;;5030923;28;20111;-66
2024/03/17 05:00:37;;;;;;;4.45;1.13;;;20.20;78.30;;;;;;5030834;28;20389;-65
2024/03/17 05:03:03;;;;;;;5.90;1.30;;;20.20;78.30;;;;;;5030439;28;20025;-68
2024/03/17 05:05:29;;;;;;;6.47;1.42;;;20.20;78.20;;;;;;5031118;28;20088;-66
2024/03/17 05:07:55;;;;;;;3.45;1.27;;;20.20;78.20;;;;;;5030857;28;20022;-66
2024/03/17 05:10:20;;;;;;;3.65;1.40;;;20.20;78.30;;;;;;5030785;28;20101;-66
2024/03/17 05:12:47;;;;;;;4.68;0.95;;;20.20;78.20;;;;;;5030149;28;20714;-65
2024/03/17 05:15:13;;;;;;;2.60;0.80;;;20.20;78.20;;;;;;5031149;28;20029;-64
2024/03/17 05:17:39;;;;;;;3.92;1.10;;;20.20;78.20;;;;;;5030878;28;20409;-67
2024/03/17 05:20:06;;;;;;;3.45;1.17;;;20.20;78.30;;;;;;5027195;28;20478;-66
2024/03/17 05:22:31;;;;;;;4.53;1.27;;;20.20;78.30;;;;;;5022946;28;20026;-68
2024/03/17 05:24:57;;;;;;;6.57;1.33;;;20.20;78.20;;;;;;5018909;28;20371;-68
2024/03/17 05:27:22;;;;;;;4.30;1.55;;;20.20;78.20;;;;;;5011100;28;20053;-68
2024/03/17 05:29:50;;;;;;;2.22;0.98;;;20.20;78.20;;;;;;5010825;28;20096;-69
2024/03/17 05:32:16;;;;;;;3.85;1.40;;;20.10;78.10;;;;;;5013420;28;20430;-67
2024/03/17 05:34:42;;;;;;;2.65;1.50;;;20.20;78.20;;;;;;5016636;28;20060;-68
2024/03/17 05:37:08;;;;;;;1.60;1.17;;;20.10;78.30;;;;;;5034342;28;20049;-65
2024/03/17 05:39:34;;;;;;;2.17;0.90;;;20.20;78.30;;;;;;5034107;28;20060;-66
2024/03/17 05:41:59;;;;;;;2.38;1.23;;;20.20;78.40;;;;;;5033348;28;20029;-64
2024/03/17 05:44:25;;;;;;;1.98;0.90;;;20.20;78.50;;;;;;5034078;28;20034;-66
2024/03/17 05:46:53;;;;;;;5.80;1.05;;;20.20;78.50;;;;;;5034125;28;20022;-63
2024/03/17 05:49:19;;;;;;;3.75;1.52;;;20.20;78.50;;;;;;5034103;28;20021;-64
2024/03/17 05:51:44;;;;;;;6.65;1.58;;;20.20;78.60;;;;;;5033133;28;20493;-64
2024/03/17 05:54:11;;;;;;;10.68;1.70;;;20.20;78.80;;;;;;5033850;28;20029;-65
2024/03/17 05:56:37;;;;;;;6.25;1.45;;;20.20;78.80;;;;;;5034186;28;20028;-65
2024/03/17 05:59:02;;;;;;;7.13;1.58;;;20.20;78.80;;;;;;5034043;28;20025;-62
2024/03/17 06:01:28;;;;;;;9.27;1.50;;;20.20;78.80;;;;;;5033005;28;20029;-65
2024/03/17 06:03:53;;;;;;;4.97;1.70;;;20.20;78.70;;;;;;5033748;28;20025;-64
2024/03/17 06:06:19;;;;;;;3.97;1.60;;;20.20;78.70;;;;;;5033879;28;20457;-64
2024/03/17 06:08:45;;;;;;;8.73;1.80;;;20.20;78.60;;;;;;5033618;28;20021;-64
2024/03/17 06:11:10;;;;;;;8.50;1.60;;;20.20;78.60;;;;;;5030763;28;20504;-64
2024/03/17 06:13:36;;;;;;;8.88;1.70;;;20.20;78.60;;;;;;5021087;28;20079;-64
2024/03/17 06:16:03;;;;;;;6.13;1.50;;;20.20;78.70;;;;;;5024186;28;20076;-63
2024/03/17 06:18:29;;;;;;;7.75;1.55;;;20.20;78.60;;;;;;5030745;28;20112;-64
2024/03/17 06:20:58;;;;;;;10.73;1.70;;;20.20;78.50;;;;;;5033032;28;20063;-65
2024/03/17 06:23:23;;;;;;;2.95;1.13;;;20.20;78.50;;;;;;5033227;28;20030;-64
2024/03/17 06:25:50;;;;;;;10.48;2.20;;;20.20;78.50;;;;;;5015534;28;20164;-66
2024/03/17 06:28:16;;;;;;;6.50;1.30;;;20.20;78.50;;;;;;5033531;28;20021;-64
2024/03/17 06:30:49;;;;;;;4.38;1.13;;;20.20;78.40;;;;;;5032980;28;20370;-64
2024/03/17 06:33:19;;;;;;;8.98;1.23;;;20.20;78.30;;;;;;5032798;28;20037;-63
2024/03/17 06:35:46;;;;;;;6.13;1.85;;;20.20;78.20;;;;;;5033188;28;20112;-63
2024/03/17 06:38:12;;;;;;;9.25;1.70;;;20.20;78.10;;;;;;5032749;28;20044;-63
2024/03/17 06:40:38;;;;;;;3.42;1.38;;;20.20;78.00;;;;;;5032471;28;20026;-61
2024/03/17 06:43:04;;;;;;;3.53;1.13;;;20.20;77.90;;;;;;5031614;28;20104;-61
2024/03/17 06:45:29;;;;;;;8.40;1.83;;;20.20;77.80;;;;;;5032281;28;20022;-61
2024/03/17 06:47:55;;;;;;;2.40;1.02;;;20.20;77.70;;;;;;5031015;28;20080;-62
2024/03/17 06:50:21;;;;;;;5.50;1.25;;;20.20;77.60;;;;;;5032004;28;20362;-62
2024/03/17 06:52:46;;;;;;;2.63;1.13;;;20.20;77.50;;;;;;5031382;28;20036;-62
2024/03/17 06:55:12;;;;;;;4.82;1.40;;;20.20;77.40;;;;;;5032484;28;20025;-62
2024/03/17 06:57:38;;;;;;;2.95;1.30;;;20.20;77.30;;;;;;5032213;28;20108;-62
2024/03/17 07:00:05;;;;;;;4.45;1.00;;;20.10;77.20;;;;;;5031922;28;20036;-62
2024/03/17 07:02:32;;;;;;;8.63;1.90;;;20.10;77.20;;;;;;5013914;28;20095;-62
2024/03/17 07:04:58;;;;;;;1.60;1.08;;;20.10;77.20;;;;;;5031727;28;20026;-62
2024/03/17 07:07:26;;;;;;;3.15;0.93;;;20.10;77.10;;;;;;5031615;28;20021;-61
2024/03/17 07:09:52;;;;;;;3.30;1.30;;;20.10;77.10;;;;;;5028728;28;20030;-61
2024/03/17 07:12:18;;;;;;;1.92;0.95;;;20.10;77.10;;;;;;5029279;28;20028;-62
2024/03/17 07:14:44;;;;;;;3.10;1.20;;;20.10;77.00;;;;;;5024155;28;20045;-62
2024/03/17 07:17:10;;;;;;;4.60;1.10;;;20.10;77.00;;;;;;5015693;28;20041;-60
2024/03/17 07:19:36;;;;;;;3.03;1.25;;;20.00;77.00;;;;;;5024244;28;20608;-63
2024/03/17 07:22:01;;;;;;;22.42;2.40;;;20.10;77.20;;;;;;5016850;28;20026;-68
2024/03/17 07:24:27;;;;;;;29.77;3.67;;;20.10;77.60;;;;;;5003246;28;20037;-65
2024/03/17 07:26:53;;;;;;;21.55;2.55;;;20.10;77.90;;;;;;5024664;28;20469;-66
2024/03/17 07:29:21;;;;;;;13.38;2.72;;;20.10;78.00;;;;;;5020802;28;20022;-65
2024/03/17 07:31:47;;;;;;;20.25;3.08;;;20.10;77.90;;;;;;5010776;28;20029;-66
2024/03/17 07:34:13;;;;;;;12.65;2.53;;;20.10;77.90;;;;;;5011317;28;20022;-65
2024/03/17 07:36:39;;;;;;;11.43;2.05;;;20.10;77.70;;;;;;5011609;28;20029;-66
2024/03/17 07:39:07;;;;;;;11.20;2.15;;;20.10;77.60;;;;;;5011865;28;20097;-66
2024/03/17 07:41:33;;;;;;;5.55;1.90;;;20.10;77.50;;;;;;5010742;28;20014;-66
2024/03/17 07:43:58;;;;;;;13.50;2.67;;;20.00;77.40;;;;;;5014111;28;20112;-67
2024/03/17 07:46:24;;;;;;;32.03;3.28;;;20.00;77.70;;;;;;5028679;28;20113;-66
2024/03/17 07:48:49;;;;;;;18.02;3.30;;;20.00;77.70;;;;;;5030959;28;20152;-68
2024/03/17 07:51:19;;;;;;;26.20;3.97;;;20.10;77.90;;;;;;5030178;28;20026;-65
2024/03/17 07:53:47;;;;;;;6.85;1.88;;;20.10;77.80;;;;;;5029517;28;20025;-65
2024/03/17 07:56:14;;;;;;;14.43;2.60;;;20.10;77.80;;;;;;5030313;28;20419;-65
2024/03/17 07:58:41;;;;;;;14.70;2.28;;;20.10;77.70;;;;;;5030268;28;20033;-66
2024/03/17 08:01:09;;;;;;;15.68;2.67;;;20.10;77.60;;;;;;5030309;28;20055;-65
2024/03/17 08:03:37;;;;;;;10.52;2.65;;;20.10;77.60;;;;;;5030653;28;20061;-66
2024/03/17 08:06:08;;;;;;;11.38;2.70;;;20.10;77.50;;;;;;5012616;28;20118;-66
2024/03/17 08:08:34;;;;;;;7.83;2.00;;;20.20;77.80;;;;;;5031230;28;20032;-65
2024/03/17 08:11:03;;;;;;;8.70;2.05;;;20.20;77.80;;;;;;5030140;28;20136;-65
2024/03/17 08:13:35;;;;;;;7.93;2.40;;;20.10;77.80;;;;;;5023700;28;20022;-66
2024/03/17 08:16:03;;;;;;;7.70;2.28;;;20.20;77.70;;;;;;5029952;28;20397;-65
2024/03/17 08:18:28;;;;;;;9.95;2.95;;;20.20;77.60;;;;;;5028627;28;20393;-66
2024/03/17 08:20:54;;;;;;;14.48;1.70;;;20.20;77.50;;;;;;5028457;28;20029;-66
2024/03/17 08:23:21;;;;;;;5.80;1.83;;;20.20;77.50;;;;;;5029951;28;20456;-66
2024/03/17 08:25:56;;;;;;;7.70;2.10;;;20.20;77.50;;;;;;5028659;28;20068;-66
2024/03/17 08:28:23;;;;;;;8.43;1.88;;;20.20;77.40;;;;;;5013225;28;20037;-66
2024/03/17 08:30:57;;;;;;;7.05;1.67;;;20.20;77.40;;;;;;5030643;28;20540;-66
2024/03/17 08:33:23;;;;;;;9.40;2.38;;;20.20;77.40;;;;;;5030740;28;20104;-66
2024/03/17 08:36:07;;;;;;;4.95;1.73;;;20.20;77.40;;;;;;5030869;28;20048;-66
2024/03/17 08:38:33;;;;;;;6.35;2.10;;;20.20;77.30;;;;;;5031091;28;20030;-66
2024/03/17 08:41:07;;;;;;;6.78;1.88;;;20.20;77.30;;;;;;5030199;28;20076;-66
2024/03/17 08:43:33;;;;;;;7.10;2.13;;;20.20;77.30;;;;;;5030455;28;20476;-65
2024/03/17 08:46:04;;;;;;;5.93;2.15;;;20.20;77.30;;;;;;5030798;28;20032;-65
2024/03/17 08:48:32;;;;;;;10.60;2.50;;;20.20;77.20;;;;;;5030864;28;20706;-64
2024/03/17 08:50:58;;;;;;;8.38;2.97;;;19.10;65.90;;;;;;5029955;28;20022;-64
2024/03/17 08:53:25;;;;;;;11.80;2.75;;;18.00;54.90;;;;;;5030130;28;20049;-64
2024/03/17 08:55:51;;;;;;;10.48;2.22;;;;;;;;;;5030617;28;20029;-64
2024/03/17 08:58:17;;;;;;;10.60;3.08;;;;;;;;;;5030558;28;20025;-64
2024/03/17 09:00:44;;;;;;;9.02;2.53;;;;;;;;;;5030119;28;20076;-64
2024/03/17 09:03:10;;;;;;;9.05;2.67;;;;;;;;;;5029946;28;20022;-64
2024/03/17 09:05:37;;;;;;;8.23;2.75;;;;;;;;;;5027019;28;20018;-65
2024/03/17 09:08:03;;;;;;;9.23;2.83;;;;;;;;;;5026796;28;20021;-64
2024/03/17 09:10:29;;;;;;;9.20;2.70;;;;;;;;;;5024306;28;20018;-64
2024/03/17 09:12:55;;;;;;;8.05;2.63;;;;;;;;;;5019844;28;20073;-64
2024/03/17 09:15:21;;;;;;;10.75;2.70;;;;;;;;;;5026190;28;20025;-64
2024/03/17 09:17:47;;;;;;;5.75;2.65;;;;;;;;;;5019440;28;20551;-66
2024/03/17 09:20:14;;;;;;;14.20;3.22;;;;;;;;;;5024915;28;20080;-66
2024/03/17 09:22:41;;;;;;;13.32;2.92;;;;;;;;;;5024929;28;20040;-65
2024/03/17 09:25:08;;;;;;;14.80;2.75;;;;;;;;;;5006326;28;20112;-66
2024/03/17 09:27:36;;;;;;;17.63;3.97;;;;;;;;;;5000160;28;20032;-66
2024/03/17 09:30:05;;;;;;;14.70;2.65;;;;;;;;;;5023175;28;20033;-68
2024/03/17 09:32:31;;;;;;;9.60;2.60;;;;;;;;;;5015259;28;20029;-64
2024/03/17 09:34:57;;;;;;;11.80;2.72;;;;;;;;;;5023225;28;20064;-67
2024/03/17 09:37:23;;;;;;;19.15;3.60;;;;;;;;;;5032698;28;20021;-66
2024/03/17 09:39:51;;;;;;;16.80;2.53;;;;;;;;;;5028044;28;20029;-67
2024/03/17 09:42:20;;;;;;;9.73;2.30;;;;;;;;;;5023894;28;20064;-67
2024/03/17 09:44:49;;;;;;;7.35;2.08;;;;;;;;;;5030810;28;20103;-67
2024/03/17 09:47:19;;;;;;;15.13;2.72;;;;;;;;;;5029818;28;20022;-67
2024/03/17 09:49:45;;;;;;;9.85;2.05;;;;;;;;;;5035627;28;20074;-67
2024/03/17 09:52:18;;;;;;;12.60;2.28;;;;;;;;;;5032456;28;20478;-66
2024/03/17 09:54:44;;;;;;;7.43;2.30;;;;;;;;;;5028559;28;20099;-67
2024/03/17 09:57:15;;;;;;;8.77;2.35;;;;;;;;;;5020833;28;20022;-66
2024/03/17 09:59:41;;;;;;;9.55;2.42;;;;;;;;;;5004642;28;20030;-66
2024/03/17 10:02:16;;;;;;;14.38;3.08;;;;;;;;;;5021798;28;20032;-66
2024/03/17 10:04:42;;;;;;;11.88;2.63;;;;;;;;;;5019488;28;20036;-67
2024/03/17 10:07:08;;;;;;;11.93;2.53;;;;;;;;;;5032539;28;20374;-67
2024/03/17 10:09:34;;;;;;;10.38;2.28;;;;;;;;;;5014417;28;20022;-68
2024/03/17 10:12:00;;;;;;;8.63;2.17;;;;;;;;;;5021276;28;20025;-68
2024/03/17 10:14:26;;;;;;;7.95;1.75;;;;;;;;;;5022189;28;20022;-68
2024/03/17 10:16:52;;;;;;;8.80;2.08;;;;;;;;;;5021662;28;20109;-68
2024/03/17 10:19:27;;;;;;;5.88;1.65;;;;;;;;;;5009775;28;20025;-67
2024/03/17 10:22:00;;;;;;;4.68;2.17;;;;;;;;;;5020978;28;20028;-68
2024/03/17 10:24:28;;;;;;;10.65;2.22;;;;;;;;;;5021514;28;20068;-68
2024/03/17 10:26:55;;;;;;;7.03;2.08;;;;;;;;;;5026180;28;20018;-68
2024/03/17 10:29:37;;;;;;;7.95;2.53;;;;;;;;;;5022691;28;20108;-68
2024/03/17 10:32:18;;;;;;;8.52;1.90;;;;;;;;;;5015198;28;20083;-68
2024/03/17 10:34:44;;;;;;;5.10;1.73;;;;;;;;;;5021483;28;20496;-67
2024/03/17 10:37:22;;;;;;;10.40;1.77;;;;;;;;;;5015635;28;20542;-67
2024/03/17 10:39:50;;;;;;;8.63;1.67;;;;;;;;;;5019256;28;20034;-67
2024/03/17 10:42:22;;;;;;;8.10;1.52;;;;;;;;;;5020738;28;20426;-67
2024/03/17 10:44:47;;;;;;;7.47;1.50;;;;;;;;;;5022674;28;20026;-67
2024/03/17 10:47:21;;;;;;;8.45;1.83;;;;;;;;;;5028194;28;20030;-67
2024/03/17 10:49:47;;;;;;;6.10;2.10;;;;;;;;;;5026277;28;20084;-67
2024/03/17 10:52:20;;;;;;;6.60;1.90;;;;;;;;;;5024795;28;20061;-67
2024/03/17 10:54:47;;;;;;;4.50;1.70;;;;;;;;;;5025823;28;20124;-67
2024/03/17 10:57:32;;;;;;;4.55;1.73;;;;;;;;;;5024518;28;20032;-66
2024/03/17 10:59:59;;;;;;;6.18;1.60;;;;;;;;;;5008602;28;20072;-66
2024/03/17 11:02:36;;;;;;;6.60;1.60;;;;;;;;;;5021675;28;20064;-67
2024/03/17 11:05:03;;;;;;;4.68;1.40;;;;;;;;;;5003527;28;20040;-67
2024/03/17 11:07:31;;;;;;;8.85;2.33;;;;;;;;;;5024229;28;20028;-67
2024/03/17 11:09:59;;;;;;;7.07;1.92;;;;;;;;;;5024229;28;20029;-66
2024/03/17 11:12:44;;;;;;;4.63;1.73;;;;;;;;;;5021250;28;20029;-67
2024/03/17 11:15:20;;;;;;;3.85;1.50;;;;;;;;;;5022283;28;20525;-66
2024/03/17 11:17:53;;;;;;;3.40;1.20;;;;;;;;;;5021560;28;20017;-67
2024/03/17 11:20:25;;;;;;;5.20;1.88;;;;;;;;;;5023085;28;20021;-67
2024/03/17 11:22:58;;;;;;;5.15;1.55;;;;;;;;;;5020002;28;20506;-67
2024/03/17 11:25:27;;;;;;;5.53;1.70;;;;;;;;;;5022880;28;20030;-67
2024/03/17 11:27:56;;;;;;;4.30;1.38;;;;;;;;;;5025315;28;20559;-67
2024/03/17 11:30:43;;;;;;;5.22;1.38;;;;;;;;;;5022337;28;20452;-68
2024/03/17 11:33:28;;;;;;;2.88;1.42;;;;;;;;;;5023461;28;20076;-67
2024/03/17 11:36:13;;;;;;;4.47;1.40;;;;;;;;;;5023505;28;20463;-67
2024/03/17 11:38:54;;;;;;;3.33;1.52;;;;;;;;;;5020396;28;20435;-68
2024/03/17 11:41:35;;;;;;;2.40;1.20;;;;;;;;;;5013319;28;20065;-67
2024/03/17 11:44:18;;;;;;;4.88;1.65;;;;;;;;;;5023633;28;20139;-68
2024/03/17 11:46:44;;;;;;;2.90;1.00;;;;;;;;;;5020421;28;20030;-67
2024/03/17 11:49:18;;;;;;;3.47;1.27;;;;;;;;;;5028280;28;20024;-67
2024/03/17 11:51:46;;;;;;;6.07;1.88;;;;;;;;;;5019453;28;20029;-68
2024/03/17 11:54:16;;;;;;;6.15;1.65;;;;;;;;;;5019785;28;20049;-67
2024/03/17 11:56:42;;;;;;;2.75;1.00;;;;;;;;;;5020003;28;20425;-67
2024/03/17 11:59:10;;;;;;;3.63;1.75;;;;;;;;;;5019278;28;20037;-67
2024/03/17 12:01:36;;;;;;;2.40;1.35;;;;;;;;;;5027266;28;20022;-68
2024/03/17 12:04:05;;;;;;;2.13;1.20;;;;;;;;;;5020705;28;20037;-68
2024/03/17 12:06:32;;;;;;;5.10;1.45;;;;;;;;;;5031954;28;20022;-68
2024/03/17 12:09:24;;;;;;;4.55;1.58;;;;;;;;;;5020155;28;20028;-67
2024/03/17 12:12:03;;;;;;;3.17;1.73;;;;;;;;;;5015842;28;20084;-68
2024/03/17 12:14:29;;;;;;;2.72;1.10;;;;;;;;;;5020009;28;20020;-67
2024/03/17 12:17:00;;;;;;;4.07;1.42;;;;;;;;;;5019625;28;20057;-68
2024/03/17 12:19:27;;;;;;;2.17;1.08;;;;;;;;;;5020167;28;20060;-67
2024/03/17 12:21:54;;;;;;;3.65;1.38;;;;;;;;;;5022471;28;20101;-67
2024/03/17 12:24:21;;;;;;;3.45;1.38;;;;;;;;;;5021158;28;20075;-68
2024/03/17 12:26:48;;;;;;;2.63;1.05;;;;;;;;;;5024983;28;20057;-68
2024/03/17 12:29:25;;;;;;;3.00;1.25;;;;;;;;;;5022271;28;20389;-67
2024/03/17 12:31:52;;;;;;;1.63;1.45;;;;;;;;;;5019693;28;20041;-67
2024/03/17 12:34:19;;;;;;;2.97;1.35;;;;;;;;;;5021139;28;20072;-67
2024/03/17 12:36:46;;;;;;;19.08;1.95;;;;;;;;;;5020132;28;20018;-68
2024/03/17 12:39:18;;;;;;;3.90;1.10;;;;;;;;;;5021041;28;20533;-66
2024/03/17 12:41:45;;;;;;;2.42;1.10;;;;;;;;;;5022048;28;20021;-67
2024/03/17 12:44:23;;;;;;;4.57;1.30;;;;;;;;;;5022973;28;20029;-67
2024/03/17 12:46:55;;;;;;;3.83;1.15;;;;;;;;;;5020227;28;20049;-67
2024/03/17 12:49:21;;;;;;;5.18;1.20;;;;;;;;;;5023081;28;20025;-67
2024/03/17 12:51:48;;;;;;;5.35;1.35;;;;;;;;;;5025386;28;20112;-67
2024/03/17 12:54:19;;;;;;;5.65;1.70;;;;;;;;;;5022047;28;20478;-67
2024/03/17 13:02:28;;;;;;;8.25;1.65;;;;;;;;;;5025045;28;20107;-68
2024/03/17 13:05:15;;;;;;;7.82;1.65;;;;;;;;;;5021022;28;20036;-67
2024/03/17 13:07:41;;;;;;;6.28;2.05;;;;;;;;;;5008070;28;20037;-67
2024/03/17 13:10:07;;;;;;;4.13;1.27;;;;;;;;;;5020759;28;20018;-67
2024/03/17 13:12:34;;;;;;;6.75;1.58;;;;;;;;;;5019111;28;20046;-67
2024/03/17 13:15:00;;;;;;;7.72;1.38;;;;;;;;;;5026512;28;20539;-67
2024/03/17 13:17:28;;;;;;;8.05;1.67;;;;;;;;;;5020606;28;20053;-67
2024/03/17 13:19:54;;;;;;;3.85;1.75;;;;;;;;;;5022213;28;20036;-67
2024/03/17 13:22:20;;;;;;;9.05;1.98;;;;;;;;;;5028645;28;20405;-67
2024/03/17 13:24:47;;;;;;;7.38;1.30;;;;;;;;;;5019881;28;20108;-67
2024/03/17 13:27:14;;;;;;;5.13;2.05;;;;;;;;;;5020617;28;20018;-66
2024/03/17 13:29:43;;;;;;;4.75;1.60;;;;;;;;;;5018810;28;20101;-68
2024/03/17 13:32:09;;;;;;;6.35;1.88;;;;;;;;;;5013110;28;20022;-68